sensor_id;sensor_type;location;lat;lon;timestamp;pressure;altitude;pressure_sealevel;temperature;humidity
3082;BME280;1551;51.046;7.010;2023-08-07T00:00:10;100513.53;;;14.69;93.81
3082;BME280;1551;51.046;7.010;2023-08-07T00:02:59;100514.31;;;14.72;94.15
3082;BME280;1551;51.046;7.010;2023-08-07T00:05:48;100519.47;;;14.72;94.27
3082;BME280;1551;51.046;7.010;2023-08-07T00:08:37;100516.13;;;14.69;94.01
3082;BME280;1551;51.046;7.010;2023-08-07T00:11:27;100521.34;;;14.66;94.64
3082;BME280;1551;51.046;7.010;2023-08-07T00:14:17;100522.06;;;14.71;94.65
3082;BME280;1551;51.046;7.010;2023-08-07T00:17:06;100524.63;;;14.72;94.58
3082;BME280;1551;51.046;7.010;2023-08-07T00:19:55;100540.31;;;14.63;94.25
3082;BME280;1551;51.046;7.010;2023-08-07T00:22:44;100532.78;;;14.57;94.63
3082;BME280;1551;51.046;7.010;2023-08-07T00:25:33;100528.56;;;14.55;94.87
3082;BME280;1551;51.046;7.010;2023-08-07T00:28:22;100526.13;;;14.50;94.94
3082;BME280;1551;51.046;7.010;2023-08-07T00:31:11;100521.84;;;14.49;95.57
3082;BME280;1551;51.046;7.010;2023-08-07T00:34:02;100534.91;;;14.43;96.18
3082;BME280;1551;51.046;7.010;2023-08-07T00:36:52;100535.88;;;14.39;96.37
3082;BME280;1551;51.046;7.010;2023-08-07T00:39:41;100536.63;;;14.42;96.95
3082;BME280;1551;51.046;7.010;2023-08-07T00:42:30;100532.41;;;14.40;96.91
3082;BME280;1551;51.046;7.010;2023-08-07T00:45:20;100543.47;;;14.43;97.07
3082;BME280;1551;51.046;7.010;2023-08-07T00:48:11;100539.13;;;14.45;97.72
3082;BME280;1551;51.046;7.010;2023-08-07T00:51:01;100547.78;;;14.43;97.15
3082;BME280;1551;51.046;7.010;2023-08-07T00:53:51;100549.56;;;14.41;97.87
3082;BME280;1551;51.046;7.010;2023-08-07T00:56:40;100549.47;;;14.44;98.33
3082;BME280;1551;51.046;7.010;2023-08-07T00:59:29;100547.78;;;14.43;97.96
3082;BME280;1551;51.046;7.010;2023-08-07T01:02:18;100553.00;;;14.40;98.44
3082;BME280;1551;51.046;7.010;2023-08-07T01:05:08;100547.13;;;14.36;97.89
3082;BME280;1551;51.046;7.010;2023-08-07T01:07:57;100555.78;;;14.32;98.37
3082;BME280;1551;51.046;7.010;2023-08-07T01:17:28;100549.34;;;14.16;99.29
3082;BME280;1551;51.046;7.010;2023-08-07T01:20:17;100562.06;;;14.22;100.00
3082;BME280;1551;51.046;7.010;2023-08-07T01:23:06;100559.50;;;14.21;100.00
3082;BME280;1551;51.046;7.010;2023-08-07T01:25:55;100566.44;;;14.19;100.00
3082;BME280;1551;51.046;7.010;2023-08-07T01:29:13;100560.53;;;14.15;100.00
3082;BME280;1551;51.046;7.010;2023-08-07T01:32:05;100568.25;;;14.15;100.00
3082;BME280;1551;51.046;7.010;2023-08-07T01:34:57;100553.69;;;14.14;100.00
3082;BME280;1551;51.046;7.010;2023-08-07T01:37:48;100560.59;;;14.12;100.00
3082;BME280;1551;51.046;7.010;2023-08-07T01:40:39;100550.38;;;14.09;100.00
3082;BME280;1551;51.046;7.010;2023-08-07T01:43:28;100545.34;;;14.06;100.00
3082;BME280;1551;51.046;7.010;2023-08-07T01:46:18;100558.09;;;14.11;100.00
3082;BME280;1551;51.046;7.010;2023-08-07T01:49:08;100567.72;;;14.04;100.00
3082;BME280;1551;51.046;7.010;2023-08-07T01:51:57;100550.03;;;13.91;100.00
3082;BME280;1551;51.046;7.010;2023-08-07T01:54:46;100548.03;;;14.02;100.00
3082;BME280;1551;51.046;7.010;2023-08-07T01:57:35;100565.03;;;14.07;100.00
3082;BME280;1551;51.046;7.010;2023-08-07T02:00:24;100572.88;;;14.03;100.00
3082;BME280;1551;51.046;7.010;2023-08-07T02:03:13;100572.75;;;14.07;100.00
3082;BME280;1551;51.046;7.010;2023-08-07T02:06:02;100569.31;;;14.08;100.00
3082;BME280;1551;51.046;7.010;2023-08-07T02:08:51;100579.53;;;14.10;100.00
3082;BME280;1551;51.046;7.010;2023-08-07T02:11:40;100587.34;;;14.07;100.00
3082;BME280;1551;51.046;7.010;2023-08-07T02:14:29;100595.22;;;14.01;100.00
3082;BME280;1551;51.046;7.010;2023-08-07T02:17:20;100598.59;;;14.03;100.00
3082;BME280;1551;51.046;7.010;2023-08-07T02:20:10;100587.69;;;13.95;100.00
3082;BME280;1551;51.046;7.010;2023-08-07T02:22:58;100598.72;;;13.98;100.00
3082;BME280;1551;51.046;7.010;2023-08-07T02:25:51;100597.81;;;14.01;100.00
3082;BME280;1551;51.046;7.010;2023-08-07T02:28:40;100601.09;;;14.06;100.00
3082;BME280;1551;51.046;7.010;2023-08-07T02:31:29;100597.84;;;13.99;100.00
3082;BME280;1551;51.046;7.010;2023-08-07T02:34:18;100600.50;;;13.96;100.00
3082;BME280;1551;51.046;7.010;2023-08-07T02:37:07;100597.97;;;13.95;100.00
3082;BME280;1551;51.046;7.010;2023-08-07T02:39:56;100581.63;;;13.96;100.00
3082;BME280;1551;51.046;7.010;2023-08-07T02:42:44;100591.97;;;13.94;100.00
3082;BME280;1551;51.046;7.010;2023-08-07T02:45:34;100599.69;;;13.94;100.00
3082;BME280;1551;51.046;7.010;2023-08-07T02:48:23;100591.91;;;13.97;100.00
3082;BME280;1551;51.046;7.010;2023-08-07T02:51:12;100589.22;;;14.00;100.00
3082;BME280;1551;51.046;7.010;2023-08-07T02:54:01;100585.00;;;13.99;100.00
3082;BME280;1551;51.046;7.010;2023-08-07T02:56:50;100582.41;;;13.99;100.00
3082;BME280;1551;51.046;7.010;2023-08-07T02:59:39;100581.56;;;13.99;100.00
3082;BME280;1551;51.046;7.010;2023-08-07T03:02:28;100579.75;;;14.02;100.00
3082;BME280;1551;51.046;7.010;2023-08-07T03:05:17;100589.16;;;14.03;100.00
3082;BME280;1551;51.046;7.010;2023-08-07T03:08:06;100587.50;;;14.01;100.00
3082;BME280;1551;51.046;7.010;2023-08-07T03:10:56;100586.75;;;13.97;100.00
3082;BME280;1551;51.046;7.010;2023-08-07T03:13:47;100593.38;;;14.06;100.00
3082;BME280;1551;51.046;7.010;2023-08-07T03:16:37;100589.97;;;14.05;100.00
3082;BME280;1551;51.046;7.010;2023-08-07T03:19:26;100594.13;;;14.09;100.00
3082;BME280;1551;51.046;7.010;2023-08-07T03:22:15;100581.50;;;14.00;100.00
3082;BME280;1551;51.046;7.010;2023-08-07T03:25:04;100588.38;;;14.00;100.00
3082;BME280;1551;51.046;7.010;2023-08-07T03:27:53;100573.13;;;13.94;100.00
3082;BME280;1551;51.046;7.010;2023-08-07T03:30:42;100582.56;;;13.93;100.00
3082;BME280;1551;51.046;7.010;2023-08-07T03:33:35;100587.63;;;13.96;100.00
3082;BME280;1551;51.046;7.010;2023-08-07T03:36:24;100585.94;;;13.95;100.00
3082;BME280;1551;51.046;7.010;2023-08-07T03:39:14;100576.78;;;13.85;100.00
3082;BME280;1551;51.046;7.010;2023-08-07T03:42:03;100592.72;;;13.98;100.00
3082;BME280;1551;51.046;7.010;2023-08-07T03:44:52;100593.50;;;14.01;100.00
3082;BME280;1551;51.046;7.010;2023-08-07T03:47:41;100590.16;;;13.98;100.00
3082;BME280;1551;51.046;7.010;2023-08-07T03:50:30;100595.41;;;13.93;100.00
3082;BME280;1551;51.046;7.010;2023-08-07T03:53:19;100603.81;;;14.01;100.00
3082;BME280;1551;51.046;7.010;2023-08-07T03:56:10;100596.94;;;14.02;100.00
3082;BME280;1551;51.046;7.010;2023-08-07T03:58:59;100615.75;;;14.02;100.00
3082;BME280;1551;51.046;7.010;2023-08-07T04:01:48;100604.78;;;13.97;100.00
3082;BME280;1551;51.046;7.010;2023-08-07T04:04:37;100615.13;;;13.94;100.00
3082;BME280;1551;51.046;7.010;2023-08-07T04:07:26;100609.91;;;13.97;100.00
3082;BME280;1551;51.046;7.010;2023-08-07T04:10:15;100608.94;;;14.01;100.00
3082;BME280;1551;51.046;7.010;2023-08-07T04:13:04;100604.47;;;14.08;100.00
3082;BME280;1551;51.046;7.010;2023-08-07T04:15:54;100618.19;;;14.08;100.00
3082;BME280;1551;51.046;7.010;2023-08-07T04:18:44;100605.41;;;14.05;100.00
3082;BME280;1551;51.046;7.010;2023-08-07T04:21:33;100601.25;;;14.00;100.00
3082;BME280;1551;51.046;7.010;2023-08-07T04:24:22;100609.56;;;14.09;100.00
3082;BME280;1551;51.046;7.010;2023-08-07T04:27:10;100611.22;;;14.12;100.00
3082;BME280;1551;51.046;7.010;2023-08-07T04:30:00;100616.44;;;14.10;100.00
3082;BME280;1551;51.046;7.010;2023-08-07T04:32:49;100611.22;;;14.12;100.00
3082;BME280;1551;51.046;7.010;2023-08-07T04:35:38;100618.94;;;14.13;100.00
3082;BME280;1551;51.046;7.010;2023-08-07T04:38:27;100620.53;;;14.17;100.00
3082;BME280;1551;51.046;7.010;2023-08-07T04:41:16;100620.59;;;14.16;100.00
3082;BME280;1551;51.046;7.010;2023-08-07T04:44:06;100621.56;;;14.10;100.00
3082;BME280;1551;51.046;7.010;2023-08-07T04:46:55;100633.59;;;14.10;100.00
3082;BME280;1551;51.046;7.010;2023-08-07T04:49:44;100628.31;;;14.16;100.00
3082;BME280;1551;51.046;7.010;2023-08-07T04:52:32;100636.16;;;14.11;100.00
3082;BME280;1551;51.046;7.010;2023-08-07T04:55:21;100633.53;;;14.13;100.00
3082;BME280;1551;51.046;7.010;2023-08-07T04:58:11;100614.72;;;14.09;100.00
3082;BME280;1551;51.046;7.010;2023-08-07T05:01:00;100633.47;;;14.14;100.00
3082;BME280;1551;51.046;7.010;2023-08-07T05:03:49;100633.53;;;14.13;100.00
3082;BME280;1551;51.046;7.010;2023-08-07T05:06:38;100644.69;;;14.12;100.00
3082;BME280;1551;51.046;7.010;2023-08-07T05:09:26;100628.31;;;14.16;100.00
3082;BME280;1551;51.046;7.010;2023-08-07T05:12:15;100618.94;;;14.13;100.00
3082;BME280;1551;51.046;7.010;2023-08-07T05:15:05;100644.66;;;14.13;100.00
3082;BME280;1551;51.046;7.010;2023-08-07T05:17:54;100621.47;;;14.15;100.00
3082;BME280;1551;51.046;7.010;2023-08-07T05:20:43;100626.66;;;14.12;100.00
3082;BME280;1551;51.046;7.010;2023-08-07T05:23:32;100629.97;;;14.18;100.00
3082;BME280;1551;51.046;7.010;2023-08-07T05:26:21;100629.06;;;14.19;100.00
3082;BME280;1551;51.046;7.010;2023-08-07T05:29:10;100635.00;;;14.21;100.00
3082;BME280;1551;51.046;7.010;2023-08-07T05:31:59;100637.44;;;14.27;100.00
3082;BME280;1551;51.046;7.010;2023-08-07T05:34:48;100644.22;;;14.31;99.62
3082;BME280;1551;51.046;7.010;2023-08-07T05:37:37;100641.53;;;14.36;99.60
3082;BME280;1551;51.046;7.010;2023-08-07T05:40:26;100638.94;;;14.36;99.06
3082;BME280;1551;51.046;7.010;2023-08-07T05:43:16;100637.41;;;14.29;99.22
3082;BME280;1551;51.046;7.010;2023-08-07T05:46:05;100646.88;;;14.27;99.09
3082;BME280;1551;51.046;7.010;2023-08-07T05:48:54;100644.97;;;14.35;98.96
3082;BME280;1551;51.046;7.010;2023-08-07T05:51:43;100646.72;;;14.34;98.95
3082;BME280;1551;51.046;7.010;2023-08-07T05:54:32;100645.63;;;14.43;98.71
3082;BME280;1551;51.046;7.010;2023-08-07T05:57:21;100652.56;;;14.41;98.83
3082;BME280;1551;51.046;7.010;2023-08-07T06:00:10;100654.88;;;14.50;98.75
3082;BME280;1551;51.046;7.010;2023-08-07T06:03:05;100650.00;;;14.39;98.46
3082;BME280;1551;51.046;7.010;2023-08-07T06:05:54;100648.31;;;14.38;98.31
3082;BME280;1551;51.046;7.010;2023-08-07T06:08:43;100644.22;;;14.31;97.70
3082;BME280;1551;51.046;7.010;2023-08-07T06:11:32;100652.84;;;14.29;97.71
3082;BME280;1551;51.046;7.010;2023-08-07T06:14:22;100649.41;;;14.28;97.88
3082;BME280;1551;51.046;7.010;2023-08-07T06:17:11;100652.00;;;14.30;97.90
3082;BME280;1551;51.046;7.010;2023-08-07T06:20:00;100639.03;;;14.33;97.85
3082;BME280;1551;51.046;7.010;2023-08-07T06:22:49;100659.16;;;14.17;97.57
3082;BME280;1551;51.046;7.010;2023-08-07T06:25:38;100658.28;;;14.18;97.98
3082;BME280;1551;51.046;7.010;2023-08-07T06:28:27;100671.22;;;14.15;98.44
3082;BME280;1551;51.046;7.010;2023-08-07T06:31:18;100661.78;;;14.14;98.18
3082;BME280;1551;51.046;7.010;2023-08-07T06:34:07;100678.13;;;14.13;98.39
3082;BME280;1551;51.046;7.010;2023-08-07T06:36:56;100672.13;;;14.13;98.15
3082;BME280;1551;51.046;7.010;2023-08-07T06:39:45;100683.13;;;14.19;98.66
3082;BME280;1551;51.046;7.010;2023-08-07T06:42:35;100683.13;;;14.19;98.28
3082;BME280;1551;51.046;7.010;2023-08-07T06:45:24;100685.69;;;14.19;98.34
3082;BME280;1551;51.046;7.010;2023-08-07T06:48:13;100693.53;;;14.15;98.19
3082;BME280;1551;51.046;7.010;2023-08-07T06:51:02;100691.00;;;14.13;98.61
3082;BME280;1551;51.046;7.010;2023-08-07T06:53:51;100687.50;;;14.16;98.70
3082;BME280;1551;51.046;7.010;2023-08-07T06:56:39;100693.47;;;14.16;98.63
3082;BME280;1551;51.046;7.010;2023-08-07T06:59:30;100702.13;;;14.14;99.00
3082;BME280;1551;51.046;7.010;2023-08-07T07:02:19;100707.25;;;14.15;99.48
3082;BME280;1551;51.046;7.010;2023-08-07T07:05:08;100707.38;;;14.11;99.12
3082;BME280;1551;51.046;7.010;2023-08-07T07:07:58;100709.88;;;14.12;99.23
3082;BME280;1551;51.046;7.010;2023-08-07T07:10:47;100705.66;;;14.10;99.15
3082;BME280;1551;51.046;7.010;2023-08-07T07:13:35;100712.53;;;14.09;99.44
3082;BME280;1551;51.046;7.010;2023-08-07T07:16:24;100725.44;;;14.08;99.60
3082;BME280;1551;51.046;7.010;2023-08-07T07:19:13;100712.53;;;14.09;100.00
3082;BME280;1551;51.046;7.010;2023-08-07T07:22:02;100713.38;;;14.10;100.00
3082;BME280;1551;51.046;7.010;2023-08-07T07:24:51;100723.66;;;14.11;100.00
3082;BME280;1551;51.046;7.010;2023-08-07T07:27:40;100724.47;;;14.13;100.00
3082;BME280;1551;51.046;7.010;2023-08-07T07:30:29;100726.19;;;14.13;100.00
3082;BME280;1551;51.046;7.010;2023-08-07T07:33:18;100733.94;;;14.11;100.00
3082;BME280;1551;51.046;7.010;2023-08-07T07:36:14;100738.16;;;14.14;100.00
3082;BME280;1551;51.046;7.010;2023-08-07T07:39:04;100756.03;;;14.20;100.00
3082;BME280;1551;51.046;7.010;2023-08-07T07:41:53;100747.53;;;14.18;100.00
3082;BME280;1551;51.046;7.010;2023-08-07T07:44:41;100740.66;;;14.18;100.00
3082;BME280;1551;51.046;7.010;2023-08-07T07:47:30;100761.16;;;14.21;100.00
3082;BME280;1551;51.046;7.010;2023-08-07T07:50:19;100760.28;;;14.21;100.00
3082;BME280;1551;51.046;7.010;2023-08-07T07:53:08;100760.34;;;14.19;100.00
3082;BME280;1551;51.046;7.010;2023-08-07T07:55:57;100766.19;;;14.26;100.00
3082;BME280;1551;51.046;7.010;2023-08-07T07:58:46;100767.84;;;14.30;100.00
3082;BME280;1551;51.046;7.010;2023-08-07T08:01:35;100772.84;;;14.36;100.00
3082;BME280;1551;51.046;7.010;2023-08-07T08:04:24;100773.72;;;14.35;100.00
3082;BME280;1551;51.046;7.010;2023-08-07T08:07:13;100772.97;;;14.31;100.00
3082;BME280;1551;51.046;7.010;2023-08-07T08:10:02;100777.94;;;14.37;100.00
3082;BME280;1551;51.046;7.010;2023-08-07T08:12:52;100790.59;;;14.46;100.00
3082;BME280;1551;51.046;7.010;2023-08-07T08:15:41;100787.88;;;14.53;100.00
3082;BME280;1551;51.046;7.010;2023-08-07T08:18:29;100796.47;;;14.53;100.00
3082;BME280;1551;51.046;7.010;2023-08-07T08:21:18;100809.25;;;14.56;100.00
3082;BME280;1551;51.046;7.010;2023-08-07T08:24:07;100819.25;;;14.68;100.00
3082;BME280;1551;51.046;7.010;2023-08-07T08:26:57;100812.56;;;14.61;100.00
3082;BME280;1551;51.046;7.010;2023-08-07T08:29:46;100822.88;;;14.61;99.96
3082;BME280;1551;51.046;7.010;2023-08-07T08:32:35;100818.63;;;14.60;100.00
3082;BME280;1551;51.046;7.010;2023-08-07T08:35:24;100833.97;;;14.65;100.00
3082;BME280;1551;51.046;7.010;2023-08-07T08:38:13;100837.47;;;14.62;100.00
3082;BME280;1551;51.046;7.010;2023-08-07T08:41:02;100846.72;;;14.69;100.00
3082;BME280;1551;51.046;7.010;2023-08-07T08:43:53;100842.31;;;14.74;100.00
3082;BME280;1551;51.046;7.010;2023-08-07T08:46:43;100841.53;;;14.71;99.90
3082;BME280;1551;51.046;7.010;2023-08-07T08:49:45;100856.75;;;14.81;100.00
3082;BME280;1551;51.046;7.010;2023-08-07T08:52:36;100853.94;;;14.90;100.00
3082;BME280;1551;51.046;7.010;2023-08-07T08:55:26;100855.38;;;15.00;99.77
3082;BME280;1551;51.046;7.010;2023-08-07T08:58:16;100865.66;;;15.02;99.43
3082;BME280;1551;51.046;7.010;2023-08-07T09:01:06;100862.00;;;15.10;99.96
3082;BME280;1551;51.046;7.010;2023-08-07T09:03:57;100869.84;;;15.06;99.02
3082;BME280;1551;51.046;7.010;2023-08-07T09:06:46;100873.41;;;15.00;99.37
3082;BME280;1551;51.046;7.010;2023-08-07T09:09:36;100871.06;;;14.93;99.35
3082;BME280;1551;51.046;7.010;2023-08-07T09:12:26;100877.19;;;14.87;99.72
3082;BME280;1551;51.046;7.010;2023-08-07T09:15:19;100879.84;;;14.84;99.94
3082;BME280;1551;51.046;7.010;2023-08-07T09:18:08;100878.84;;;14.90;100.00
3082;BME280;1551;51.046;7.010;2023-08-07T09:20:59;100883.03;;;14.94;100.00
3082;BME280;1551;51.046;7.010;2023-08-07T09:23:48;100891.00;;;14.85;99.30
3082;BME280;1551;51.046;7.010;2023-08-07T09:26:41;100880.81;;;14.80;100.00
3082;BME280;1551;51.046;7.010;2023-08-07T09:29:32;100872.91;;;14.86;100.00
3082;BME280;1551;51.046;7.010;2023-08-07T09:32:22;100875.84;;;15.06;100.00
3082;BME280;1551;51.046;7.010;2023-08-07T09:35:12;100889.66;;;15.36;100.00
3082;BME280;1551;51.046;7.010;2023-08-07T09:38:02;100886.41;;;15.62;99.92
3082;BME280;1551;51.046;7.010;2023-08-07T09:40:51;100889.75;;;15.96;99.39
3082;BME280;1551;51.046;7.010;2023-08-07T09:43:40;100904.81;;;16.39;98.34
3082;BME280;1551;51.046;7.010;2023-08-07T09:46:29;100893.59;;;16.68;97.66
3082;BME280;1551;51.046;7.010;2023-08-07T09:49:32;100897.75;;;16.99;95.89
3082;BME280;1551;51.046;7.010;2023-08-07T09:52:22;100891.81;;;16.96;95.47
3082;BME280;1551;51.046;7.010;2023-08-07T09:55:13;100898.19;;;16.86;94.19
3082;BME280;1551;51.046;7.010;2023-08-07T09:58:07;100910.84;;;16.67;94.46
3082;BME280;1551;51.046;7.010;2023-08-07T10:01:04;100916.84;;;16.69;94.68
3082;BME280;1551;51.046;7.010;2023-08-07T10:03:54;100914.00;;;17.03;93.83
3082;BME280;1551;51.046;7.010;2023-08-07T10:06:43;100913.38;;;17.21;91.74
3082;BME280;1551;51.046;7.010;2023-08-07T10:09:33;100912.28;;;17.28;90.61
3082;BME280;1551;51.046;7.010;2023-08-07T10:12:22;100913.81;;;17.34;89.54
3082;BME280;1551;51.046;7.010;2023-08-07T10:15:11;100913.63;;;17.64;88.46
3082;BME280;1551;51.046;7.010;2023-08-07T10:18:03;100915.56;;;18.06;86.46
3082;BME280;1551;51.046;7.010;2023-08-07T10:20:53;100910.41;;;18.27;84.07
3082;BME280;1551;51.046;7.010;2023-08-07T10:23:43;100922.34;;;18.31;82.72
3082;BME280;1551;51.046;7.010;2023-08-07T10:26:34;100917.22;;;18.30;81.73
3082;BME280;1551;51.046;7.010;2023-08-07T10:29:25;100922.38;;;18.08;80.76
3082;BME280;1551;51.046;7.010;2023-08-07T10:32:17;100916.50;;;18.26;80.58
3082;BME280;1551;51.046;7.010;2023-08-07T10:35:08;100931.56;;;19.25;77.83
3082;BME280;1551;51.046;7.010;2023-08-07T10:38:08;100925.03;;;19.37;75.47
3082;BME280;1551;51.046;7.010;2023-08-07T10:40:59;100930.94;;;19.20;74.94
3082;BME280;1551;51.046;7.010;2023-08-07T10:43:51;100921.47;;;19.59;74.06
3082;BME280;1551;51.046;7.010;2023-08-07T10:46:53;100920.38;;;20.22;71.47
3082;BME280;1551;51.046;7.010;2023-08-07T10:49:42;100918.75;;;21.10;67.99
3082;BME280;1551;51.046;7.010;2023-08-07T10:52:31;100913.53;;;22.25;62.77
3082;BME280;1551;51.046;7.010;2023-08-07T10:55:20;100915.44;;;21.73;61.81
3082;BME280;1551;51.046;7.010;2023-08-07T10:58:30;100911.16;;;21.22;61.35
3082;BME280;1551;51.046;7.010;2023-08-07T11:04:15;100910.94;;;21.27;59.13
3082;BME280;1551;51.046;7.010;2023-08-07T11:07:05;100919.38;;;21.65;58.90
3082;BME280;1551;51.046;7.010;2023-08-07T11:09:55;100926.03;;;21.38;58.35
3082;BME280;1551;51.046;7.010;2023-08-07T11:12:45;100921.19;;;20.60;59.39
3082;BME280;1551;51.046;7.010;2023-08-07T11:15:34;100924.78;;;20.02;60.76
3082;BME280;1551;51.046;7.010;2023-08-07T11:18:23;100925.09;;;21.71;58.92
3082;BME280;1551;51.046;7.010;2023-08-07T11:21:11;100926.06;;;23.41;54.54
3082;BME280;1551;51.046;7.010;2023-08-07T11:24:02;100930.13;;;23.60;53.33
3082;BME280;1551;51.046;7.010;2023-08-07T11:26:51;100931.56;;;22.45;53.92
3082;BME280;1551;51.046;7.010;2023-08-07T11:29:41;100936.00;;;22.59;53.26
3082;BME280;1551;51.046;7.010;2023-08-07T11:32:30;100937.88;;;23.02;49.49
3082;BME280;1551;51.046;7.010;2023-08-07T11:35:19;100934.47;;;22.08;50.10
3082;BME280;1551;51.046;7.010;2023-08-07T11:38:08;100927.72;;;21.71;51.34
3082;BME280;1551;51.046;7.010;2023-08-07T11:41:01;100922.19;;;22.26;49.42
3082;BME280;1551;51.046;7.010;2023-08-07T11:43:51;100930.72;;;23.36;46.71
3082;BME280;1551;51.046;7.010;2023-08-07T11:46:40;100932.34;;;24.37;45.17
3082;BME280;1551;51.046;7.010;2023-08-07T11:49:29;100930.78;;;24.20;44.52
3082;BME280;1551;51.046;7.010;2023-08-07T11:52:18;100936.16;;;24.72;44.14
3082;BME280;1551;51.046;7.010;2023-08-07T11:55:08;100934.25;;;24.88;43.53
3082;BME280;1551;51.046;7.010;2023-08-07T11:57:59;100939.03;;;24.82;42.39
3082;BME280;1551;51.046;7.010;2023-08-07T12:00:52;100935.50;;;24.83;42.92
3082;BME280;1551;51.046;7.010;2023-08-07T12:03:50;100925.28;;;25.05;42.81
3082;BME280;1551;51.046;7.010;2023-08-07T12:06:52;100934.13;;;24.77;41.84
3082;BME280;1551;51.046;7.010;2023-08-07T12:09:41;100931.06;;;24.02;44.79
3082;BME280;1551;51.046;7.010;2023-08-07T12:12:36;100921.81;;;23.68;43.10
3082;BME280;1551;51.046;7.010;2023-08-07T12:15:28;100935.44;;;23.73;44.14
3082;BME280;1551;51.046;7.010;2023-08-07T12:18:18;100929.25;;;22.86;44.28
3082;BME280;1551;51.046;7.010;2023-08-07T12:21:07;100922.88;;;22.76;44.62
3082;BME280;1551;51.046;7.010;2023-08-07T12:23:57;100912.28;;;22.64;45.09
3082;BME280;1551;51.046;7.010;2023-08-07T12:26:46;100927.31;;;23.77;44.03
3082;BME280;1551;51.046;7.010;2023-08-07T12:29:35;100935.72;;;23.82;43.67
3082;BME280;1551;51.046;7.010;2023-08-07T12:32:24;100930.41;;;23.70;43.18
3082;BME280;1551;51.046;7.010;2023-08-07T12:35:13;100936.81;;;23.50;42.47
3082;BME280;1551;51.046;7.010;2023-08-07T12:38:02;100930.03;;;23.76;41.97
3082;BME280;1551;51.046;7.010;2023-08-07T12:40:54;100932.06;;;24.68;41.63
3082;BME280;1551;51.046;7.010;2023-08-07T12:43:43;100931.91;;;24.02;39.93
3082;BME280;1551;51.046;7.010;2023-08-07T12:46:32;100929.41;;;23.72;40.66
3082;BME280;1551;51.046;7.010;2023-08-07T12:49:21;100932.50;;;23.35;41.23
3082;BME280;1551;51.046;7.010;2023-08-07T12:52:12;100928.59;;;22.83;41.77
3082;BME280;1551;51.046;7.010;2023-08-07T12:55:01;100932.81;;;22.85;41.89
3082;BME280;1551;51.046;7.010;2023-08-07T12:57:50;100924.13;;;22.85;42.55
3082;BME280;1551;51.046;7.010;2023-08-07T13:00:39;100929.34;;;23.14;41.90
3082;BME280;1551;51.046;7.010;2023-08-07T13:03:28;100928.81;;;23.81;40.75
3082;BME280;1551;51.046;7.010;2023-08-07T13:06:17;100922.63;;;23.97;39.23
3082;BME280;1551;51.046;7.010;2023-08-07T13:09:05;100933.94;;;23.83;39.57
3082;BME280;1551;51.046;7.010;2023-08-07T13:11:54;100922.47;;;24.14;39.23
3082;BME280;1551;51.046;7.010;2023-08-07T13:14:43;100937.94;;;23.46;39.20
3082;BME280;1551;51.046;7.010;2023-08-07T13:17:32;100939.34;;;22.92;40.30
3082;BME280;1551;51.046;7.010;2023-08-07T13:20:21;100940.13;;;23.68;39.96
3082;BME280;1551;51.046;7.010;2023-08-07T13:23:10;100940.13;;;24.10;38.98
3082;BME280;1551;51.046;7.010;2023-08-07T13:26:00;100944.22;;;24.28;36.67
3082;BME280;1551;51.046;7.010;2023-08-07T13:28:49;100949.13;;;24.47;37.14
3082;BME280;1551;51.046;7.010;2023-08-07T13:31:38;100937.09;;;24.44;37.10
3082;BME280;1551;51.046;7.010;2023-08-07T13:34:27;100938.94;;;24.56;37.11
3082;BME280;1551;51.046;7.010;2023-08-07T13:37:16;100948.06;;;24.23;37.97
3082;BME280;1551;51.046;7.010;2023-08-07T13:40:06;100931.69;;;24.33;37.66
3082;BME280;1551;51.046;7.010;2023-08-07T13:42:55;100939.03;;;24.41;37.32
3082;BME280;1551;51.046;7.010;2023-08-07T13:45:44;100934.81;;;24.52;37.15
3082;BME280;1551;51.046;7.010;2023-08-07T13:48:33;100942.72;;;24.65;36.74
3082;BME280;1551;51.046;7.010;2023-08-07T13:51:23;100931.91;;;24.16;36.36
3082;BME280;1551;51.046;7.010;2023-08-07T13:54:12;100938.44;;;23.95;38.47
3082;BME280;1551;51.046;7.010;2023-08-07T13:57:01;100958.69;;;24.20;38.47
3082;BME280;1551;51.046;7.010;2023-08-07T13:59:50;100956.88;;;23.50;38.49
3082;BME280;1551;51.046;7.010;2023-08-07T14:02:39;100962.75;;;23.39;39.20
3082;BME280;1551;51.046;7.010;2023-08-07T14:05:28;100957.47;;;23.55;39.26
3082;BME280;1551;51.046;7.010;2023-08-07T14:08:16;100953.56;;;23.32;39.67
3082;BME280;1551;51.046;7.010;2023-08-07T14:11:05;100957.81;;;23.19;40.17
3082;BME280;1551;51.046;7.010;2023-08-07T14:13:58;100949.81;;;22.92;40.98
3082;BME280;1551;51.046;7.010;2023-08-07T14:16:47;100949.84;;;22.61;42.48
3082;BME280;1551;51.046;7.010;2023-08-07T14:19:37;100961.06;;;22.30;42.61
3082;BME280;1551;51.046;7.010;2023-08-07T14:22:26;100959.78;;;22.06;43.10
3082;BME280;1551;51.046;7.010;2023-08-07T14:25:15;100970.41;;;21.86;43.64
3082;BME280;1551;51.046;7.010;2023-08-07T14:28:04;100977.47;;;21.67;43.99
3082;BME280;1551;51.046;7.010;2023-08-07T14:30:59;100974.09;;;21.65;44.89
3082;BME280;1551;51.046;7.010;2023-08-07T14:33:49;100978.16;;;21.70;45.61
3082;BME280;1551;51.046;7.010;2023-08-07T14:36:38;100984.66;;;21.79;46.48
3082;BME280;1551;51.046;7.010;2023-08-07T14:39:27;100988.44;;;21.56;47.89
3082;BME280;1551;51.046;7.010;2023-08-07T14:42:16;100989.78;;;21.80;48.75
3082;BME280;1551;51.046;7.010;2023-08-07T14:45:05;100989.88;;;21.96;48.68
3082;BME280;1551;51.046;7.010;2023-08-07T14:47:55;100991.31;;;22.66;48.02
3082;BME280;1551;51.046;7.010;2023-08-07T14:50:44;100980.47;;;22.73;47.53
3082;BME280;1551;51.046;7.010;2023-08-07T14:53:32;100982.91;;;22.61;47.83
3082;BME280;1551;51.046;7.010;2023-08-07T14:56:21;100992.19;;;22.66;47.72
3082;BME280;1551;51.046;7.010;2023-08-07T14:59:10;100996.75;;;22.30;47.58
3082;BME280;1551;51.046;7.010;2023-08-07T15:01:59;100984.03;;;21.74;48.84
3082;BME280;1551;51.046;7.010;2023-08-07T15:04:49;100998.31;;;21.84;49.53
3082;BME280;1551;51.046;7.010;2023-08-07T15:07:38;100982.84;;;21.64;50.32
3082;BME280;1551;51.046;7.010;2023-08-07T15:10:27;100994.34;;;21.43;50.14
3082;BME280;1551;51.046;7.010;2023-08-07T15:13:16;100989.56;;;21.34;50.81
3082;BME280;1551;51.046;7.010;2023-08-07T15:16:05;101002.59;;;21.34;50.36